Time;durP1;ratioP1;P1;durP2;ratioP2;P2;SDS_P1;SDS_P2;PMS_P1;PMS_P2;Temp;Humidity;BMP_temperature;BMP_pressure;BME280_temperature;BME280_humidity;BME280_pressure;Samples;Min_cycle;Max_cycle;Signal;HPM_P1;HPM_P2
2021/12/07 00:01:12;;;;;;;32.13;15.83;;;-0.20;99.90;;;;;;5073017;28;20181;-77
2021/12/07 00:03:38;;;;;;;30.13;16.10;;;-0.20;99.90;;;;;;5072710;28;20327;-79
2021/12/07 00:06:04;;;;;;;29.83;15.40;;;-0.20;99.90;;;;;;5072970;28;20193;-77
2021/12/07 00:08:30;;;;;;;27.63;15.23;;;-0.20;99.90;;;;;;5073440;28;20437;-78
2021/12/07 00:10:57;;;;;;;31.67;14.73;;;-0.20;99.90;;;;;;5072523;28;20207;-80
2021/12/07 00:13:24;;;;;;;33.53;16.33;;;-0.20;99.90;;;;;;5054332;28;20181;-81
2021/12/07 00:15:50;;;;;;;31.60;16.57;;;-0.20;99.90;;;;;;5072503;28;20201;-79
2021/12/07 00:18:16;;;;;;;37.37;17.57;;;-0.20;99.90;;;;;;5072320;28;20219;-80
2021/12/07 00:20:41;;;;;;;32.87;16.10;;;-0.10;99.90;;;;;;5054322;28;20182;-78
2021/12/07 00:23:10;;;;;;;33.37;15.67;;;-0.10;99.90;;;;;;5054791;28;20182;-80
2021/12/07 00:25:36;;;;;;;30.93;15.73;;;-0.10;99.90;;;;;;5062121;28;20196;-80
2021/12/07 00:28:03;;;;;;;35.13;17.50;;;-0.10;99.90;;;;;;5054065;28;20213;-79
2021/12/07 00:30:32;;;;;;;35.60;17.17;;;-0.10;99.90;;;;;;5053582;28;20220;-78
2021/12/07 00:33:13;;;;;;;34.60;17.27;;;-0.20;99.90;;;;;;5073506;28;20313;-80
2021/12/07 00:35:39;;;;;;;37.20;18.20;;;-0.10;99.90;;;;;;5072685;28;20209;-80
2021/12/07 00:38:22;;;;;;;34.27;18.00;;;-0.10;99.90;;;;;;5071779;28;20212;-78
2021/12/07 00:40:49;;;;;;;37.53;18.37;;;-0.20;99.90;;;;;;5072365;28;20177;-79
2021/12/07 00:43:15;;;;;;;35.37;16.97;;;-0.10;99.90;;;;;;5053903;28;20185;-80
2021/12/07 00:45:45;;;;;;;39.20;18.77;;;-0.20;99.90;;;;;;5072543;28;20185;-79
2021/12/07 00:48:13;;;;;;;42.83;19.10;;;-0.20;99.90;;;;;;5072455;28;20683;-80
2021/12/07 00:50:41;;;;;;;42.07;19.30;;;-0.20;99.90;;;;;;5054135;28;20220;-80
2021/12/07 00:53:08;;;;;;;37.63;19.23;;;-0.20;99.90;;;;;;5053839;28;20265;-81
2021/12/07 00:55:37;;;;;;;38.00;17.63;;;-0.30;99.90;;;;;;5072329;28;20202;-80
2021/12/07 00:58:12;;;;;;;36.20;18.30;;;-0.20;99.90;;;;;;5056999;28;20265;-79
2021/12/07 01:00:39;;;;;;;35.57;18.30;;;-0.30;99.90;;;;;;5067442;28;20181;-80
2021/12/07 01:03:05;;;;;;;39.03;18.93;;;-0.30;99.90;;;;;;5075753;28;20178;-79
2021/12/07 01:05:34;;;;;;;38.13;19.47;;;-0.20;99.90;;;;;;5076132;28;20203;-77
2021/12/07 01:26:54;;;;;;;39.17;18.80;;;-0.10;99.90;;;;;;5075392;28;20193;-78
2021/12/07 01:29:23;;;;;;;42.00;19.03;;;0.00;99.90;;;;;;5057744;28;20213;-78
2021/12/07 01:46:01;;;;;;;34.23;18.00;;;0.00;99.90;;;;;;4993546;28;20207;-78
2021/12/07 01:59:34;;;;;;;37.23;18.37;;;0.00;99.90;;;;;;5072241;28;20247;-77
2021/12/07 02:02:08;;;;;;;37.90;17.87;;;-0.10;99.90;;;;;;5062628;28;20556;-81
2021/12/07 02:04:34;;;;;;;34.00;17.50;;;0.00;99.90;;;;;;5074367;28;20189;-81
2021/12/07 02:06:59;;;;;;;36.33;18.43;;;0.00;99.90;;;;;;5073421;28;20682;-78
2021/12/07 02:09:25;;;;;;;39.33;18.77;;;-0.10;99.90;;;;;;5055334;28;20206;-77
2021/12/07 02:11:58;;;;;;;35.03;17.83;;;0.00;99.90;;;;;;5074154;28;20192;-79
2021/12/07 02:14:24;;;;;;;38.83;17.80;;;0.00;99.90;;;;;;5075258;28;20272;-79
2021/12/07 02:16:53;;;;;;;35.30;17.47;;;0.00;99.90;;;;;;5056365;28;20261;-78
2021/12/07 02:19:20;;;;;;;33.23;17.73;;;0.00;99.90;;;;;;5074285;28;20190;-78
2021/12/07 02:21:46;;;;;;;35.23;18.00;;;0.00;99.90;;;;;;5074426;28;20235;-78
2021/12/07 02:24:11;;;;;;;35.27;17.73;;;0.00;99.90;;;;;;5074940;28;20178;-81
2021/12/07 02:26:37;;;;;;;37.57;17.83;;;0.00;99.90;;;;;;5074062;28;20592;-78
2021/12/07 02:29:06;;;;;;;35.20;17.83;;;0.00;99.90;;;;;;5075031;28;20257;-78
2021/12/07 02:31:33;;;;;;;36.57;18.27;;;-0.10;99.90;;;;;;5056251;28;20569;-78
2021/12/07 02:33:59;;;;;;;40.57;20.10;;;-0.10;99.90;;;;;;5063798;28;20185;-79
2021/12/07 02:36:25;;;;;;;37.70;18.30;;;-0.10;99.90;;;;;;5074318;28;20584;-81
2021/12/07 02:38:50;;;;;;;31.23;16.47;;;-0.10;99.90;;;;;;5074708;28;20194;-76
2021/12/07 02:41:17;;;;;;;36.43;18.07;;;-0.20;99.90;;;;;;5074750;28;20212;-80
2021/12/07 02:43:44;;;;;;;35.27;18.37;;;-0.20;99.90;;;;;;5064830;28;20217;-80
2021/12/07 02:46:10;;;;;;;39.83;18.47;;;-0.20;99.90;;;;;;5073673;28;20200;-77
2021/12/07 02:48:36;;;;;;;34.93;16.83;;;-0.20;99.90;;;;;;5055859;28;20213;-79
2021/12/07 02:51:02;;;;;;;34.90;17.73;;;-0.20;99.90;;;;;;5055929;28;20242;-79
2021/12/07 02:53:30;;;;;;;35.80;17.83;;;-0.30;99.90;;;;;;5074036;28;20181;-79
2021/12/07 02:55:57;;;;;;;32.83;17.33;;;-0.30;99.90;;;;;;5074584;28;20224;-78
2021/12/07 02:58:23;;;;;;;36.53;17.47;;;-0.30;99.90;;;;;;5054450;28;20223;-79
2021/12/07 03:00:59;;;;;;;34.60;17.63;;;-0.30;99.90;;;;;;5073723;28;20185;-78
2021/12/07 03:03:27;;;;;;;38.23;19.13;;;-0.30;99.90;;;;;;5072920;28;20694;-79
2021/12/07 03:06:14;;;;;;;39.17;18.17;;;-0.40;99.90;;;;;;5056038;28;20186;-79
2021/12/07 03:09:41;;;;;;;34.13;16.90;;;-0.30;99.90;;;;;;5054524;28;20278;-79
2021/12/07 03:27:59;;;;;;;32.63;17.57;;;-0.20;99.90;;;;;;5072326;28;20234;-80
2021/12/07 03:30:26;;;;;;;38.33;18.03;;;-0.20;99.90;;;;;;5054318;28;20766;-78
2021/12/07 03:32:52;;;;;;;36.67;18.33;;;-0.20;99.90;;;;;;5054879;28;21099;-78
2021/12/07 03:35:18;;;;;;;41.23;19.03;;;-0.20;99.90;;;;;;5073363;28;20231;-77
2021/12/07 03:37:44;;;;;;;34.90;17.60;;;-0.20;99.90;;;;;;5073849;28;20544;-78
2021/12/07 03:40:11;;;;;;;38.80;18.57;;;-0.20;99.90;;;;;;5069546;28;20617;-80
2021/12/07 03:42:37;;;;;;;33.97;18.83;;;-0.20;99.90;;;;;;5071041;28;20177;-78
2021/12/07 03:45:05;;;;;;;32.57;16.83;;;-0.20;99.90;;;;;;5053124;28;20185;-80
2021/12/07 03:47:31;;;;;;;35.43;17.23;;;-0.10;99.90;;;;;;5072557;28;20181;-77
2021/12/07 03:49:57;;;;;;;36.67;17.97;;;-0.10;99.90;;;;;;5072744;28;20206;-78
2021/12/07 03:52:22;;;;;;;34.77;17.60;;;-0.10;99.90;;;;;;5055128;28;20182;-78
2021/12/07 03:54:48;;;;;;;34.77;18.30;;;0.00;99.90;;;;;;5055621;28;20209;-79
2021/12/07 03:57:14;;;;;;;34.73;17.10;;;0.00;99.90;;;;;;5073148;28;20208;-77
2021/12/07 03:59:40;;;;;;;32.53;17.63;;;0.10;99.90;;;;;;5073326;28;20209;-79
2021/12/07 04:02:07;;;;;;;36.57;18.20;;;0.10;99.90;;;;;;5054858;28;20178;-77
2021/12/07 04:04:33;;;;;;;34.23;17.23;;;0.20;99.90;;;;;;5071531;28;20262;-78
2021/12/07 04:06:59;;;;;;;35.03;17.00;;;0.20;99.90;;;;;;5074037;28;20178;-78
2021/12/07 04:09:24;;;;;;;34.87;18.17;;;0.20;99.90;;;;;;5055440;28;20197;-79
2021/12/07 04:11:50;;;;;;;36.10;17.90;;;0.20;99.90;;;;;;5054703;28;20205;-78
2021/12/07 04:14:16;;;;;;;33.47;17.37;;;0.20;99.90;;;;;;5071723;28;20655;-78
2021/12/07 04:16:41;;;;;;;35.80;17.40;;;0.20;99.90;;;;;;5054854;28;20209;-78
2021/12/07 04:19:07;;;;;;;34.57;18.20;;;0.20;99.90;;;;;;5055129;28;20193;-77
2021/12/07 04:21:32;;;;;;;35.13;17.90;;;0.20;99.90;;;;;;5074446;28;20272;-79
2021/12/07 04:23:58;;;;;;;36.53;19.20;;;0.20;99.90;;;;;;5055496;28;20292;-77
2021/12/07 04:26:25;;;;;;;38.13;18.23;;;0.20;99.90;;;;;;5055434;28;20196;-79
2021/12/07 04:28:51;;;;;;;34.90;16.67;;;0.20;99.90;;;;;;5054308;28;20574;-81
2021/12/07 04:31:17;;;;;;;38.40;19.17;;;0.20;99.90;;;;;;5053673;28;20186;-79
2021/12/07 04:33:43;;;;;;;35.93;18.20;;;0.20;99.90;;;;;;5073929;28;20189;-78
2021/12/07 04:36:10;;;;;;;32.80;16.77;;;0.10;99.90;;;;;;5073414;28;20284;-77
2021/12/07 04:38:37;;;;;;;31.27;16.67;;;0.20;99.90;;;;;;5073717;28;20204;-78
2021/12/07 04:41:03;;;;;;;31.27;16.77;;;0.30;99.90;;;;;;5055125;28;20196;-79
2021/12/07 04:43:29;;;;;;;31.33;16.70;;;0.30;99.90;;;;;;5054576;28;20260;-78
2021/12/07 04:46:22;;;;;;;28.17;15.47;;;0.40;99.90;;;;;;5072119;28;20617;-76
2021/12/07 04:59:29;;;;;;;26.70;14.93;;;0.60;99.90;;;;;;5071743;28;20224;-77
2021/12/07 05:01:54;;;;;;;26.60;15.50;;;0.60;99.90;;;;;;5054711;28;20186;-80
2021/12/07 05:04:25;;;;;;;30.10;15.93;;;0.60;99.90;;;;;;5053843;28;20670;-80
2021/12/07 05:06:56;;;;;;;29.07;15.47;;;0.60;99.90;;;;;;5071080;28;20655;-78
2021/12/07 05:14:32;;;;;;;27.37;14.73;;;0.60;99.90;;;;;;5072812;28;20204;-77
2021/12/07 05:17:18;;;;;;;26.80;14.70;;;0.60;99.90;;;;;;5054269;28;20194;-77
2021/12/07 05:38:37;;;;;;;28.63;13.87;;;0.50;99.90;;;;;;5072128;28;20209;-77
2021/12/07 05:41:05;;;;;;;26.83;14.37;;;0.50;99.90;;;;;;5052836;28;20174;-77
2021/12/07 05:43:31;;;;;;;24.93;14.40;;;0.50;99.90;;;;;;5054010;28;20178;-79
2021/12/07 05:45:57;;;;;;;24.57;14.23;;;0.50;99.90;;;;;;5076037;28;20192;-79
2021/12/07 05:48:22;;;;;;;27.63;15.30;;;0.50;99.90;;;;;;5076358;28;20213;-78
2021/12/07 05:50:48;;;;;;;28.83;15.37;;;0.50;99.90;;;;;;5057925;28;20212;-77
2021/12/07 05:53:14;;;;;;;26.40;13.50;;;0.50;99.90;;;;;;5058008;28;20205;-80
2021/12/07 05:55:40;;;;;;;24.63;13.90;;;0.50;99.90;;;;;;5057353;28;20192;-77
2021/12/07 05:58:08;;;;;;;25.03;14.07;;;0.50;99.90;;;;;;5057790;28;20663;-79
2021/12/07 06:00:34;;;;;;;24.47;13.73;;;0.50;99.90;;;;;;5056950;28;20178;-80
2021/12/07 06:03:04;;;;;;;27.27;15.30;;;0.50;99.90;;;;;;5075257;28;20268;-76
2021/12/07 06:05:31;;;;;;;25.77;15.10;;;0.40;99.90;;;;;;5076020;28;20174;-76
2021/12/07 06:07:57;;;;;;;29.77;14.43;;;0.40;99.90;;;;;;5058398;28;20197;-80
2021/12/07 06:10:23;;;;;;;29.17;14.10;;;0.40;99.90;;;;;;5076090;28;20184;-78
2021/12/07 06:12:49;;;;;;;25.57;14.13;;;0.40;99.90;;;;;;5065994;28;20181;-79
2021/12/07 06:15:18;;;;;;;26.60;14.60;;;0.40;99.90;;;;;;5075092;28;20181;-78
2021/12/07 06:17:46;;;;;;;28.20;15.03;;;0.40;99.90;;;;;;5075309;28;20211;-81
2021/12/07 06:20:13;;;;;;;26.40;14.73;;;0.40;99.90;;;;;;5056876;28;20288;-78
2021/12/07 06:22:38;;;;;;;23.43;13.70;;;0.40;99.90;;;;;;5057812;28;20188;-80
2021/12/07 06:25:05;;;;;;;25.97;14.30;;;0.40;99.90;;;;;;5057468;28;20392;-78
2021/12/07 06:27:30;;;;;;;26.33;12.67;;;0.50;99.90;;;;;;5074737;28;20182;-78
2021/12/07 06:29:57;;;;;;;24.90;14.03;;;0.40;99.90;;;;;;5056549;28;20574;-78
2021/12/07 06:32:24;;;;;;;24.80;13.73;;;0.30;99.90;;;;;;5056988;28;20189;-79
2021/12/07 06:34:50;;;;;;;23.67;13.70;;;0.40;99.90;;;;;;5074350;28;20190;-79
2021/12/07 06:37:16;;;;;;;24.53;13.37;;;0.30;99.90;;;;;;5075274;28;20689;-80
2021/12/07 06:39:42;;;;;;;30.63;14.27;;;0.30;99.90;;;;;;5055231;28;20201;-79
2021/12/07 06:42:07;;;;;;;26.77;13.53;;;0.40;99.90;;;;;;5055284;28;20182;-79
2021/12/07 06:44:33;;;;;;;21.60;12.13;;;0.30;99.90;;;;;;5074685;28;20181;-78
2021/12/07 06:46:59;;;;;;;23.63;12.53;;;0.30;99.90;;;;;;5056976;28;20296;-79
2021/12/07 06:49:24;;;;;;;23.97;13.10;;;0.30;99.90;;;;;;5075213;28;20220;-78
2021/12/07 06:51:50;;;;;;;26.37;13.70;;;0.30;99.90;;;;;;5056642;28;20258;-78
2021/12/07 06:54:16;;;;;;;24.53;13.67;;;0.30;99.90;;;;;;5074992;28;20182;-77
2021/12/07 06:56:42;;;;;;;26.27;13.57;;;0.20;99.90;;;;;;5074562;28;20201;-80
2021/12/07 06:59:07;;;;;;;24.97;12.87;;;0.20;99.90;;;;;;5056556;28;20316;-78
2021/12/07 07:01:33;;;;;;;24.87;13.60;;;0.20;99.90;;;;;;5056325;28;20278;-80
2021/12/07 07:04:00;;;;;;;27.50;13.93;;;0.10;99.90;;;;;;5074577;28;20186;-79
2021/12/07 07:06:25;;;;;;;25.77;13.30;;;0.10;99.90;;;;;;5067498;28;20189;-80
2021/12/07 07:08:51;;;;;;;23.77;12.90;;;0.20;99.90;;;;;;5056281;28;20212;-78
2021/12/07 07:11:18;;;;;;;23.70;13.83;;;0.10;99.90;;;;;;5074491;28;20194;-78
2021/12/07 07:13:45;;;;;;;22.40;12.90;;;0.00;99.90;;;;;;5075013;28;20662;-80
2021/12/07 07:16:11;;;;;;;24.20;13.73;;;0.00;99.90;;;;;;5054976;28;20220;-81
2021/12/07 07:18:36;;;;;;;23.70;13.37;;;-0.10;99.90;;;;;;5066400;28;20209;-79
2021/12/07 07:21:03;;;;;;;25.67;14.67;;;-0.10;99.90;;;;;;5056646;28;20204;-76
2021/12/07 07:23:29;;;;;;;23.23;13.03;;;-0.10;99.90;;;;;;5056918;28;20181;-76
2021/12/07 07:25:55;;;;;;;25.17;13.73;;;-0.10;99.90;;;;;;5056357;28;20205;-79
2021/12/07 07:28:24;;;;;;;26.13;15.57;;;-0.20;99.90;;;;;;5074076;28;20197;-79
2021/12/07 07:30:50;;;;;;;28.67;15.37;;;-0.20;99.90;;;;;;5053598;28;20235;-77
2021/12/07 07:33:17;;;;;;;24.63;13.90;;;-0.30;99.90;;;;;;5073429;28;20177;-77
2021/12/07 07:35:42;;;;;;;20.93;12.43;;;-0.30;99.90;;;;;;5050692;28;20624;-77
2021/12/07 07:38:08;;;;;;;27.17;13.70;;;-0.30;99.90;;;;;;5054194;28;20213;-79
2021/12/07 07:40:34;;;;;;;25.70;13.80;;;-0.30;99.90;;;;;;5045167;28;20178;-77
2021/12/07 07:42:59;;;;;;;22.77;13.57;;;-0.30;99.90;;;;;;5075979;28;20219;-78
2021/12/07 07:45:25;;;;;;;27.50;14.37;;;-0.30;99.90;;;;;;5073476;28;21231;-79
2021/12/07 07:47:51;;;;;;;29.27;14.07;;;-0.30;99.90;;;;;;5070418;28;20193;-79
2021/12/07 07:50:17;;;;;;;23.03;12.83;;;-0.30;99.90;;;;;;5068213;28;20927;-78
2021/12/07 07:52:43;;;;;;;24.13;14.00;;;-0.30;99.90;;;;;;5053848;28;20197;-77
2021/12/07 07:55:11;;;;;;;25.43;14.60;;;-0.30;99.90;;;;;;5054432;28;20181;-78
2021/12/07 07:57:36;;;;;;;21.77;12.43;;;-0.20;99.90;;;;;;5071788;28;20224;-79
2021/12/07 08:00:05;;;;;;;24.00;12.77;;;-0.20;99.90;;;;;;5052182;28;20209;-78
2021/12/07 08:02:31;;;;;;;21.57;12.40;;;-0.10;99.90;;;;;;5052751;28;20575;-79
2021/12/07 08:04:56;;;;;;;24.97;13.33;;;-0.10;99.90;;;;;;5068813;28;20250;-78
2021/12/07 08:07:22;;;;;;;27.10;13.27;;;0.00;99.90;;;;;;5070238;28;20204;-77
2021/12/07 08:09:47;;;;;;;20.83;12.20;;;0.00;99.90;;;;;;5051152;28;20233;-79
2021/12/07 08:12:13;;;;;;;25.13;12.87;;;0.10;99.90;;;;;;5070769;28;21050;-79
2021/12/07 08:14:39;;;;;;;23.00;12.40;;;0.20;99.90;;;;;;5052480;28;20193;-78
2021/12/07 08:17:05;;;;;;;26.73;13.10;;;0.30;99.90;;;;;;5069741;28;20202;-76
2021/12/07 08:19:32;;;;;;;23.23;13.33;;;0.40;99.90;;;;;;5070548;28;20232;-79
2021/12/07 08:21:57;;;;;;;23.73;13.87;;;0.40;99.90;;;;;;5051560;28;20178;-82
2021/12/07 08:24:23;;;;;;;26.17;13.20;;;0.50;99.90;;;;;;5053108;28;20192;-78
2021/12/07 08:26:49;;;;;;;23.63;12.97;;;0.60;99.90;;;;;;5052380;28;20185;-81
2021/12/07 08:29:14;;;;;;;24.13;13.07;;;0.60;99.90;;;;;;5050816;28;20197;-77
2021/12/07 08:31:40;;;;;;;25.63;14.63;;;0.60;99.90;;;;;;5052861;28;21024;-80
2021/12/07 08:34:05;;;;;;;24.00;13.90;;;0.60;99.90;;;;;;5070589;28;20200;-79
2021/12/07 08:36:31;;;;;;;26.13;14.10;;;0.70;99.90;;;;;;5052753;28;20205;-78
2021/12/07 08:38:57;;;;;;;19.73;12.83;;;0.70;99.90;;;;;;5072612;28;20205;-77
2021/12/07 08:41:23;;;;;;;23.43;13.10;;;0.80;99.90;;;;;;5068230;28;20241;-79
2021/12/07 08:43:48;;;;;;;23.83;13.17;;;0.80;99.90;;;;;;5050049;28;20256;-79
2021/12/07 08:46:15;;;;;;;22.17;12.57;;;0.90;99.90;;;;;;5061001;28;20193;-79
2021/12/07 08:48:42;;;;;;;21.93;12.53;;;0.90;99.90;;;;;;5069896;28;20296;-77
2021/12/07 08:51:10;;;;;;;21.83;12.23;;;1.00;99.90;;;;;;5052206;28;20192;-79
2021/12/07 08:53:42;;;;;;;23.73;13.33;;;1.00;99.90;;;;;;5070259;28;20197;-78
2021/12/07 09:01:36;;;;;;;19.37;11.17;;;1.20;99.90;;;;;;5069054;28;20262;-77
2021/12/07 09:04:03;;;;;;;20.47;12.50;;;1.20;99.90;;;;;;5064896;28;20193;-79
2021/12/07 09:06:29;;;;;;;20.27;11.63;;;1.10;99.90;;;;;;5059276;28;20247;-78
2021/12/07 09:08:56;;;;;;;18.50;11.43;;;1.20;99.90;;;;;;5069749;28;20209;-79
2021/12/07 09:11:22;;;;;;;22.70;12.67;;;1.20;99.90;;;;;;5050140;28;20190;-78
2021/12/07 09:13:48;;;;;;;17.53;10.77;;;1.20;99.90;;;;;;5069725;28;20196;-77
2021/12/07 09:16:17;;;;;;;20.67;12.30;;;1.30;99.90;;;;;;5056681;28;20206;-79
2021/12/07 09:18:43;;;;;;;21.40;11.73;;;1.30;99.90;;;;;;5075982;28;20280;-78
2021/12/07 09:21:09;;;;;;;20.87;12.83;;;1.20;99.90;;;;;;5059702;28;21033;-78
2021/12/07 09:23:35;;;;;;;20.37;12.10;;;1.20;99.90;;;;;;5058769;28;20284;-80
2021/12/07 09:26:02;;;;;;;18.30;11.37;;;1.20;99.90;;;;;;5056467;28;20240;-78
2021/12/07 09:28:28;;;;;;;18.80;11.70;;;1.40;99.90;;;;;;5071820;28;20701;-79
2021/12/07 09:30:55;;;;;;;19.83;12.00;;;1.40;99.90;;;;;;5075580;28;20252;-80
2021/12/07 09:33:23;;;;;;;21.50;12.77;;;1.60;99.90;;;;;;5057020;28;20193;-80
2021/12/07 09:35:49;;;;;;;18.67;11.57;;;1.70;99.90;;;;;;5070978;28;20449;-78
2021/12/07 09:38:15;;;;;;;22.87;12.33;;;1.80;99.90;;;;;;5052973;28;20237;-80
2021/12/07 09:40:42;;;;;;;20.53;12.60;;;1.80;99.90;;;;;;5048783;28;20493;-79
2021/12/07 09:43:08;;;;;;;19.43;11.63;;;1.80;99.90;;;;;;5049542;28;20186;-78
2021/12/07 09:45:35;;;;;;;21.43;12.30;;;1.80;99.90;;;;;;5067454;28;20193;-80
2021/12/07 09:48:04;;;;;;;20.30;12.67;;;1.80;99.90;;;;;;5048348;28;20625;-80
2021/12/07 09:50:30;;;;;;;22.43;12.70;;;1.80;99.90;;;;;;5050713;28;20663;-81
2021/12/07 09:52:56;;;;;;;19.77;12.33;;;1.70;99.90;;;;;;5050769;28;20186;-81
2021/12/07 09:55:22;;;;;;;19.00;11.43;;;1.70;99.90;;;;;;5050550;28;20178;-81
2021/12/07 09:57:48;;;;;;;22.67;13.43;;;1.70;99.90;;;;;;5069077;28;20236;-81
2021/12/07 10:00:18;;;;;;;20.20;12.37;;;1.80;99.90;;;;;;5051987;28;20209;-78
2021/12/07 10:02:44;;;;;;;20.97;12.30;;;1.90;99.90;;;;;;5064125;28;20192;-77
2021/12/07 10:05:11;;;;;;;20.63;12.40;;;2.00;99.90;;;;;;5045728;28;20181;-78
2021/12/07 10:07:37;;;;;;;20.93;12.17;;;2.00;99.90;;;;;;5066637;28;20232;-78
2021/12/07 10:10:17;;;;;;;21.57;12.77;;;2.00;99.90;;;;;;5067042;28;20701;-78
2021/12/07 10:12:42;;;;;;;21.40;12.67;;;2.00;99.90;;;;;;5048491;28;20667;-78
2021/12/07 10:15:09;;;;;;;19.93;11.67;;;2.00;99.90;;;;;;5066120;28;20178;-77
2021/12/07 10:17:37;;;;;;;19.37;11.90;;;2.00;99.90;;;;;;5065660;28;20205;-77
2021/12/07 10:20:32;;;;;;;20.77;12.27;;;2.10;99.90;;;;;;5064216;28;20201;-75
2021/12/07 10:23:04;;;;;;;19.67;12.40;;;2.00;99.90;;;;;;5065104;28;20184;-78
2021/12/07 10:25:30;;;;;;;21.07;12.33;;;2.10;99.90;;;;;;5048864;28;20189;-76
2021/12/07 10:27:57;;;;;;;20.77;12.67;;;2.10;99.90;;;;;;5068504;28;20224;-78
2021/12/07 10:30:23;;;;;;;21.23;12.53;;;2.30;99.90;;;;;;5067355;28;20185;-78
2021/12/07 10:33:02;;;;;;;20.87;12.80;;;2.40;99.90;;;;;;5069178;28;20560;-78
2021/12/07 10:35:36;;;;;;;20.03;11.73;;;2.40;99.90;;;;;;5051735;28;20269;-76
2021/12/07 10:38:16;;;;;;;19.17;12.13;;;2.40;99.90;;;;;;5068772;28;20212;-78
2021/12/07 10:41:01;;;;;;;19.60;11.70;;;2.40;99.90;;;;;;5051026;28;20227;-77
2021/12/07 10:43:50;;;;;;;17.90;11.10;;;2.50;99.90;;;;;;5069143;28;20602;-75
2021/12/07 10:46:39;;;;;;;19.60;11.40;;;2.50;99.90;;;;;;5050541;28;20559;-78
2021/12/07 10:49:20;;;;;;;19.87;12.07;;;2.60;99.90;;;;;;5051427;28;20551;-78
2021/12/07 10:52:15;;;;;;;17.80;10.67;;;2.70;99.90;;;;;;5068481;28;20221;-81
2021/12/07 10:54:46;;;;;;;18.33;11.33;;;2.70;99.90;;;;;;5069443;28;20211;-80
2021/12/07 10:57:16;;;;;;;17.73;10.93;;;2.60;99.90;;;;;;5050311;28;20209;-78
2021/12/07 10:59:54;;;;;;;16.97;10.83;;;2.60;99.90;;;;;;5069516;28;20225;-78
2021/12/07 11:02:21;;;;;;;17.50;10.93;;;2.60;99.90;;;;;;5068619;28;20182;-80
2021/12/07 11:04:49;;;;;;;19.37;12.03;;;2.60;99.90;;;;;;5051505;28;20731;-80
2021/12/07 11:07:24;;;;;;;18.80;11.80;;;2.60;99.90;;;;;;5068672;28;20559;-79
2021/12/07 11:10:08;;;;;;;18.43;11.83;;;2.60;99.90;;;;;;5069087;28;20197;-79
2021/12/07 11:12:48;;;;;;;20.47;11.67;;;2.60;99.90;;;;;;5050892;28;20200;-75
2021/12/07 11:15:22;;;;;;;19.00;11.03;;;2.40;99.90;;;;;;5050070;28;20181;-77
2021/12/07 11:17:48;;;;;;;21.17;12.30;;;2.30;99.90;;;;;;5050437;28;20217;-76
2021/12/07 11:20:14;;;;;;;20.87;11.90;;;2.40;99.90;;;;;;5068449;28;20203;-78
2021/12/07 11:22:48;;;;;;;19.17;11.77;;;2.20;99.90;;;;;;5050380;28;20185;-76
2021/12/07 11:25:32;;;;;;;19.20;11.33;;;2.20;99.90;;;;;;5050612;28;20186;-79
2021/12/07 11:30:42;;;;;;;19.57;11.67;;;2.30;99.90;;;;;;5068935;28;20212;-78
2021/12/07 11:33:07;;;;;;;18.57;11.33;;;2.50;99.90;;;;;;5068507;28;20177;-75
2021/12/07 11:35:34;;;;;;;20.07;12.07;;;2.50;99.90;;;;;;5048741;28;20712;-78
2021/12/07 11:38:03;;;;;;;20.23;12.20;;;2.60;99.90;;;;;;5067464;28;20207;-77
2021/12/07 11:40:37;;;;;;;17.00;11.20;;;2.60;99.90;;;;;;5049698;28;20189;-78
2021/12/07 11:43:16;;;;;;;18.90;11.47;;;2.60;99.90;;;;;;5068148;28;20223;-78
2021/12/07 11:45:44;;;;;;;19.13;12.20;;;2.80;99.90;;;;;;5050539;28;20209;-76
2021/12/07 11:48:10;;;;;;;19.00;11.53;;;2.80;99.90;;;;;;5068026;28;20206;-80
2021/12/07 11:50:43;;;;;;;17.37;11.53;;;2.90;99.90;;;;;;5068026;28;20209;-77
2021/12/07 11:53:18;;;;;;;19.13;11.37;;;2.80;99.90;;;;;;5068062;28;20694;-78
2021/12/07 11:55:48;;;;;;;20.27;11.60;;;2.90;99.90;;;;;;5067260;28;20238;-83
2021/12/07 11:58:14;;;;;;;18.77;11.53;;;2.80;99.90;;;;;;5048838;28;20219;-79
2021/12/07 12:00:47;;;;;;;18.83;11.40;;;2.60;99.90;;;;;;5049765;28;20189;-76
2021/12/07 12:03:15;;;;;;;19.97;12.00;;;2.50;99.90;;;;;;5067718;28;20219;-79
2021/12/07 12:05:43;;;;;;;19.70;11.57;;;2.40;99.90;;;;;;5067624;28;20354;-75
2021/12/07 12:08:13;;;;;;;16.47;11.30;;;2.40;99.90;;;;;;5045036;28;20217;-76
2021/12/07 12:10:42;;;;;;;18.13;11.93;;;2.30;99.90;;;;;;5065740;28;20226;-79
2021/12/07 12:13:11;;;;;;;20.27;11.83;;;2.20;99.90;;;;;;5067279;28;20182;-78
2021/12/07 12:15:47;;;;;;;21.33;12.47;;;2.10;99.90;;;;;;5066153;28;20213;-77
2021/12/07 12:18:26;;;;;;;21.33;12.23;;;2.00;99.90;;;;;;5067408;28;21014;-76
2021/12/07 12:21:11;;;;;;;19.70;12.23;;;2.00;99.90;;;;;;5049289;28;20181;-78
2021/12/07 12:23:56;;;;;;;20.10;12.33;;;1.90;99.90;;;;;;5048659;28;20188;-80
2021/12/07 12:26:24;;;;;;;21.17;12.50;;;1.90;99.90;;;;;;5067472;28;20208;-77
2021/12/07 12:28:51;;;;;;;21.13;13.20;;;1.90;99.90;;;;;;5049818;28;20231;-78
2021/12/07 12:31:20;;;;;;;20.83;13.13;;;1.90;99.90;;;;;;5067111;28;20559;-74
2021/12/07 12:33:55;;;;;;;22.10;12.60;;;1.80;99.90;;;;;;5050148;28;20296;-77
2021/12/07 12:36:23;;;;;;;21.07;12.60;;;1.80;99.90;;;;;;5048736;28;20201;-79
2021/12/07 12:39:05;;;;;;;19.30;11.83;;;1.80;99.90;;;;;;5067228;28;20206;-78
2021/12/07 12:41:31;;;;;;;18.87;12.23;;;1.80;99.90;;;;;;5066953;28;20210;-76
2021/12/07 12:44:10;;;;;;;20.03;12.57;;;1.80;99.90;;;;;;5068134;28;20610;-80
2021/12/07 12:46:37;;;;;;;21.57;12.67;;;1.80;99.90;;;;;;5067610;28;20197;-78
2021/12/07 12:49:10;;;;;;;21.93;12.33;;;1.90;99.90;;;;;;5068440;28;20549;-78
2021/12/07 12:51:49;;;;;;;24.00;13.57;;;2.00;99.90;;;;;;5050726;28;20182;-75
2021/12/07 12:54:15;;;;;;;21.00;13.43;;;2.00;99.90;;;;;;5071669;28;20181;-78
2021/12/07 12:56:41;;;;;;;20.17;12.37;;;2.00;99.90;;;;;;5054614;28;20212;-80
2021/12/07 12:59:10;;;;;;;25.10;14.37;;;1.90;99.90;;;;;;5072465;28;20248;-78
2021/12/07 13:01:43;;;;;;;22.73;13.27;;;2.10;99.90;;;;;;5072471;28;20643;-78
2021/12/07 13:04:16;;;;;;;22.37;14.00;;;2.10;99.90;;;;;;5073381;28;20215;-78
2021/12/07 13:06:53;;;;;;;22.83;13.87;;;2.10;99.90;;;;;;5072461;28;20181;-76
2021/12/07 13:09:19;;;;;;;25.17;14.30;;;2.20;99.90;;;;;;5054279;28;20209;-74
2021/12/07 13:12:06;;;;;;;25.07;13.73;;;2.30;99.90;;;;;;5054588;28;20564;-79
2021/12/07 13:14:39;;;;;;;25.27;14.40;;;2.40;99.90;;;;;;5054963;28;20190;-79
2021/12/07 13:17:04;;;;;;;19.37;12.77;;;2.30;99.90;;;;;;5052907;28;20201;-79
2021/12/07 13:19:31;;;;;;;22.33;13.37;;;2.30;99.90;;;;;;5070422;28;20212;-78
2021/12/07 13:22:04;;;;;;;20.27;12.00;;;2.30;99.90;;;;;;5052777;28;20201;-78
2021/12/07 13:24:35;;;;;;;21.20;12.47;;;2.40;99.90;;;;;;5052468;28;20217;-78
2021/12/07 13:27:10;;;;;;;19.77;11.77;;;2.40;99.90;;;;;;5070513;28;20623;-80
2021/12/07 13:29:37;;;;;;;23.97;12.27;;;2.40;99.90;;;;;;5070379;28;20213;-78
2021/12/07 13:32:04;;;;;;;20.50;12.50;;;2.40;99.90;;;;;;5070438;28;20178;-78
2021/12/07 13:34:33;;;;;;;21.20;13.33;;;2.40;99.90;;;;;;5052400;28;20277;-78
2021/12/07 13:37:01;;;;;;;20.37;12.03;;;2.30;99.90;;;;;;5070192;28;20223;-77
2021/12/07 13:39:29;;;;;;;19.93;12.77;;;2.30;99.90;;;;;;5054203;28;20201;-81
2021/12/07 13:42:00;;;;;;;23.20;13.37;;;2.30;99.90;;;;;;5070520;28;20335;-76
2021/12/07 13:44:27;;;;;;;22.13;12.77;;;2.40;99.90;;;;;;5052439;28;20178;-78
2021/12/07 13:47:03;;;;;;;21.03;12.80;;;2.30;99.90;;;;;;5052275;28;20460;-78
2021/12/07 13:49:32;;;;;;;21.37;12.83;;;2.40;99.90;;;;;;5070999;28;20205;-79
2021/12/07 13:51:58;;;;;;;21.97;13.40;;;2.30;99.90;;;;;;5051718;28;20185;-78
2021/12/07 13:54:23;;;;;;;19.57;12.97;;;2.40;99.90;;;;;;5069350;28;20178;-77
2021/12/07 13:56:55;;;;;;;21.33;12.73;;;2.40;99.90;;;;;;5051558;28;20232;-78
2021/12/07 13:59:25;;;;;;;19.83;12.93;;;2.30;99.90;;;;;;5053436;28;20210;-78
2021/12/07 14:01:57;;;;;;;22.80;12.67;;;2.30;99.90;;;;;;5052042;28;20647;-77
2021/12/07 14:04:26;;;;;;;20.83;12.77;;;2.30;99.90;;;;;;5051509;28;20178;-78
2021/12/07 14:06:52;;;;;;;21.37;12.63;;;2.30;99.90;;;;;;5052573;28;20806;-76
2021/12/07 14:09:17;;;;;;;22.80;13.50;;;2.30;99.90;;;;;;5069867;28;20205;-79
2021/12/07 14:11:49;;;;;;;21.07;13.10;;;2.20;99.90;;;;;;5051381;28;20177;-78
2021/12/07 14:14:17;;;;;;;23.13;14.17;;;2.20;99.90;;;;;;5051589;28;20181;-77
2021/12/07 14:16:44;;;;;;;25.70;12.83;;;2.20;99.90;;;;;;5068906;28;20488;-78
2021/12/07 14:19:10;;;;;;;22.53;13.17;;;2.20;99.90;;;;;;5051326;28;20193;-77
2021/12/07 14:21:36;;;;;;;23.83;13.00;;;2.20;99.90;;;;;;5050198;28;20181;-78
2021/12/07 14:24:07;;;;;;;23.20;14.07;;;2.20;99.90;;;;;;5070270;28;20178;-78